sensor_id;sensor_type;location;lat;lon;timestamp;pressure;altitude;pressure_sealevel;temperature;humidity
76998;BME280;65930;48.874;10.734;2023-11-19T00:00:19;96030.56;;;6.44;100.00
76998;BME280;65930;48.874;10.734;2023-11-19T00:02:48;96031.88;;;6.54;100.00
76998;BME280;65930;48.874;10.734;2023-11-19T00:05:17;96021.13;;;6.42;100.00
76998;BME280;65930;48.874;10.734;2023-11-19T00:07:45;96035.56;;;6.35;100.00
76998;BME280;65930;48.874;10.734;2023-11-19T00:10:15;96035.75;;;6.49;100.00
76998;BME280;65930;48.874;10.734;2023-11-19T00:12:46;96021.97;;;6.46;100.00
76998;BME280;65930;48.874;10.734;2023-11-19T00:15:16;96003.47;;;6.43;100.00
76998;BME280;65930;48.874;10.734;2023-11-19T00:17:46;96003.19;;;6.55;100.00
76998;BME280;65930;48.874;10.734;2023-11-19T00:20:20;96001.09;;;6.78;100.00
76998;BME280;65930;48.874;10.734;2023-11-19T00:22:49;95990.56;;;6.87;100.00
76998;BME280;65930;48.874;10.734;2023-11-19T00:25:20;95979.88;;;6.45;100.00
76998;BME280;65930;48.874;10.734;2023-11-19T00:27:49;95976.94;;;6.61;100.00
76998;BME280;65930;48.874;10.734;2023-11-19T00:30:20;95981.44;;;6.43;100.00
76998;BME280;65930;48.874;10.734;2023-11-19T00:32:48;95975.34;;;6.60;100.00
76998;BME280;65930;48.874;10.734;2023-11-19T00:35:18;95970.53;;;6.53;100.00
76998;BME280;65930;48.874;10.734;2023-11-19T00:37:46;95969.19;;;6.74;100.00
76998;BME280;65930;48.874;10.734;2023-11-19T00:40:14;95970.56;;;6.90;100.00
76998;BME280;65930;48.874;10.734;2023-11-19T00:42:45;95972.25;;;6.65;100.00
76998;BME280;65930;48.874;10.734;2023-11-19T00:45:14;95975.63;;;6.85;100.00
76998;BME280;65930;48.874;10.734;2023-11-19T00:47:42;95965.31;;;6.78;100.00
76998;BME280;65930;48.874;10.734;2023-11-19T00:50:10;95968.03;;;6.75;100.00
76998;BME280;65930;48.874;10.734;2023-11-19T00:52:39;95958.31;;;6.88;100.00
76998;BME280;65930;48.874;10.734;2023-11-19T00:55:07;95953.28;;;6.93;100.00
76998;BME280;65930;48.874;10.734;2023-11-19T00:57:36;95957.34;;;6.66;100.00
76998;BME280;65930;48.874;10.734;2023-11-19T01:00:05;95956.81;;;6.94;100.00
76998;BME280;65930;48.874;10.734;2023-11-19T01:02:46;95947.47;;;7.05;100.00
76998;BME280;65930;48.874;10.734;2023-11-19T01:05:16;95945.22;;;6.74;100.00
76998;BME280;65930;48.874;10.734;2023-11-19T01:07:50;95939.56;;;7.00;100.00
76998;BME280;65930;48.874;10.734;2023-11-19T01:10:20;95950.91;;;6.55;100.00
76998;BME280;65930;48.874;10.734;2023-11-19T01:12:48;95947.03;;;6.59;100.00
76998;BME280;65930;48.874;10.734;2023-11-19T01:15:16;95953.41;;;6.67;100.00
76998;BME280;65930;48.874;10.734;2023-11-19T01:17:46;95952.81;;;6.88;100.00
76998;BME280;65930;48.874;10.734;2023-11-19T01:20:17;95960.38;;;6.94;100.00
76998;BME280;65930;48.874;10.734;2023-11-19T01:22:47;95949.56;;;6.75;100.00
76998;BME280;65930;48.874;10.734;2023-11-19T01:25:17;95950.75;;;6.78;100.00
76998;BME280;65930;48.874;10.734;2023-11-19T01:27:46;95959.03;;;6.81;100.00
76998;BME280;65930;48.874;10.734;2023-11-19T01:30:14;95961.22;;;6.61;100.00
76998;BME280;65930;48.874;10.734;2023-11-19T01:32:42;95959.81;;;6.78;100.00
76998;BME280;65930;48.874;10.734;2023-11-19T01:35:10;95947.63;;;6.79;100.00
76998;BME280;65930;48.874;10.734;2023-11-19T01:37:38;95945.06;;;7.00;100.00
76998;BME280;65930;48.874;10.734;2023-11-19T01:40:07;95935.72;;;7.08;100.00
76998;BME280;65930;48.874;10.734;2023-11-19T01:42:39;95938.84;;;7.11;100.00
76998;BME280;65930;48.874;10.734;2023-11-19T01:45:08;95928.41;;;6.86;100.00
76998;BME280;65930;48.874;10.734;2023-11-19T01:47:37;95914.34;;;6.95;100.00
76998;BME280;65930;48.874;10.734;2023-11-19T01:50:07;95924.56;;;6.94;100.00
76998;BME280;65930;48.874;10.734;2023-11-19T01:52:36;95920.56;;;6.88;100.00
76998;BME280;65930;48.874;10.734;2023-11-19T01:55:07;95927.69;;;6.93;100.00
76998;BME280;65930;48.874;10.734;2023-11-19T01:57:36;95922.69;;;7.05;100.00
76998;BME280;65930;48.874;10.734;2023-11-19T02:00:10;95909.94;;;7.38;100.00
76998;BME280;65930;48.874;10.734;2023-11-19T02:02:40;95909.03;;;7.23;100.00
76998;BME280;65930;48.874;10.734;2023-11-19T02:05:09;95902.00;;;7.26;100.00
76998;BME280;65930;48.874;10.734;2023-11-19T02:07:37;95903.50;;;7.20;100.00
76998;BME280;65930;48.874;10.734;2023-11-19T02:10:06;95905.44;;;7.16;100.00
76998;BME280;65930;48.874;10.734;2023-11-19T02:12:40;95905.91;;;7.25;100.00
76998;BME280;65930;48.874;10.734;2023-11-19T02:15:12;95900.66;;;7.05;100.00
76998;BME280;65930;48.874;10.734;2023-11-19T02:17:40;95901.09;;;7.15;100.00
76998;BME280;65930;48.874;10.734;2023-11-19T02:20:08;95898.47;;;6.81;100.00
76998;BME280;65930;48.874;10.734;2023-11-19T02:22:39;95895.66;;;7.18;100.00
76998;BME280;65930;48.874;10.734;2023-11-19T02:25:12;95893.28;;;7.17;100.00
76998;BME280;65930;48.874;10.734;2023-11-19T02:27:52;95882.38;;;7.34;100.00
76998;BME280;65930;48.874;10.734;2023-11-19T02:30:24;95895.44;;;6.93;100.00
76998;BME280;65930;48.874;10.734;2023-11-19T02:32:53;95892.50;;;7.20;100.00
76998;BME280;65930;48.874;10.734;2023-11-19T02:35:24;95880.19;;;7.06;100.00
76998;BME280;65930;48.874;10.734;2023-11-19T02:37:52;95874.47;;;7.33;100.00
76998;BME280;65930;48.874;10.734;2023-11-19T02:40:21;95884.22;;;7.20;100.00
76998;BME280;65930;48.874;10.734;2023-11-19T02:42:52;95882.19;;;7.09;100.00
76998;BME280;65930;48.874;10.734;2023-11-19T02:45:22;95881.38;;;7.05;100.00
76998;BME280;65930;48.874;10.734;2023-11-19T02:47:50;95874.38;;;7.19;100.00
76998;BME280;65930;48.874;10.734;2023-11-19T02:50:19;95868.22;;;7.39;100.00
76998;BME280;65930;48.874;10.734;2023-11-19T02:52:53;95868.81;;;7.08;100.00
76998;BME280;65930;48.874;10.734;2023-11-19T02:55:24;95859.97;;;7.43;100.00
76998;BME280;65930;48.874;10.734;2023-11-19T02:57:56;95861.19;;;7.45;100.00
76998;BME280;65930;48.874;10.734;2023-11-19T03:00:26;95856.16;;;7.65;100.00
76998;BME280;65930;48.874;10.734;2023-11-19T03:03:03;95851.41;;;7.55;100.00
76998;BME280;65930;48.874;10.734;2023-11-19T03:05:45;95859.50;;;7.27;100.00
76998;BME280;65930;48.874;10.734;2023-11-19T03:08:14;95857.81;;;7.12;100.00
76998;BME280;65930;48.874;10.734;2023-11-19T03:10:45;95860.31;;;7.31;100.00
76998;BME280;65930;48.874;10.734;2023-11-19T03:13:15;95854.00;;;7.27;100.00
76998;BME280;65930;48.874;10.734;2023-11-19T03:15:44;95861.91;;;7.35;100.00
76998;BME280;65930;48.874;10.734;2023-11-19T03:18:12;95859.94;;;7.36;100.00
76998;BME280;65930;48.874;10.734;2023-11-19T03:20:40;95858.38;;;7.42;100.00
76998;BME280;65930;48.874;10.734;2023-11-19T03:23:08;95857.28;;;7.53;100.00
76998;BME280;65930;48.874;10.734;2023-11-19T03:25:36;95856.41;;;7.39;100.00
76998;BME280;65930;48.874;10.734;2023-11-19T03:28:04;95854.03;;;7.34;100.00
76998;BME280;65930;48.874;10.734;2023-11-19T03:30:34;95858.97;;;7.11;100.00
76998;BME280;65930;48.874;10.734;2023-11-19T03:33:02;95857.41;;;7.09;100.00
76998;BME280;65930;48.874;10.734;2023-11-19T03:35:31;95850.00;;;7.21;100.00
76998;BME280;65930;48.874;10.734;2023-11-19T03:38:00;95865.91;;;7.48;100.00
76998;BME280;65930;48.874;10.734;2023-11-19T03:40:29;95857.22;;;7.39;100.00
76998;BME280;65930;48.874;10.734;2023-11-19T03:42:57;95858.00;;;7.40;100.00
76998;BME280;65930;48.874;10.734;2023-11-19T03:45:25;95869.19;;;7.72;100.00
76998;BME280;65930;48.874;10.734;2023-11-19T03:47:55;95874.63;;;7.54;100.00
76998;BME280;65930;48.874;10.734;2023-11-19T03:50:23;95875.41;;;7.55;100.00
76998;BME280;65930;48.874;10.734;2023-11-19T03:52:51;95870.00;;;7.72;100.00
76998;BME280;65930;48.874;10.734;2023-11-19T03:55:19;95865.63;;;7.64;100.00
76998;BME280;65930;48.874;10.734;2023-11-19T03:57:47;95877.81;;;7.63;100.00
76998;BME280;65930;48.874;10.734;2023-11-19T04:00:15;95860.84;;;7.58;100.00
76998;BME280;65930;48.874;10.734;2023-11-19T04:02:44;95852.69;;;7.79;100.00
76998;BME280;65930;48.874;10.734;2023-11-19T04:05:15;95858.16;;;7.72;100.00
76998;BME280;65930;48.874;10.734;2023-11-19T04:07:45;95849.53;;;7.77;100.00
76998;BME280;65930;48.874;10.734;2023-11-19T04:10:13;95819.88;;;7.56;100.00
76998;BME280;65930;48.874;10.734;2023-11-19T04:12:43;95816.38;;;7.59;100.00
76998;BME280;65930;48.874;10.734;2023-11-19T04:15:11;95826.31;;;7.81;100.00
76998;BME280;65930;48.874;10.734;2023-11-19T04:17:39;95838.47;;;7.70;100.00
76998;BME280;65930;48.874;10.734;2023-11-19T04:20:08;95829.13;;;7.92;100.00
76998;BME280;65930;48.874;10.734;2023-11-19T04:22:40;95825.13;;;7.82;100.00
76998;BME280;65930;48.874;10.734;2023-11-19T04:25:08;95828.41;;;8.16;100.00
76998;BME280;65930;48.874;10.734;2023-11-19T04:27:39;95821.22;;;7.83;100.00
76998;BME280;65930;48.874;10.734;2023-11-19T04:30:08;95803.00;;;7.65;100.00
76998;BME280;65930;48.874;10.734;2023-11-19T04:32:38;95805.13;;;8.07;100.00
76998;BME280;65930;48.874;10.734;2023-11-19T04:35:07;95798.41;;;8.01;100.00
76998;BME280;65930;48.874;10.734;2023-11-19T04:37:35;95803.50;;;7.88;100.00
76998;BME280;65930;48.874;10.734;2023-11-19T04:40:06;95810.28;;;8.12;100.00
76998;BME280;65930;48.874;10.734;2023-11-19T04:42:34;95814.69;;;8.30;100.00
76998;BME280;65930;48.874;10.734;2023-11-19T04:45:03;95804.75;;;8.19;100.00
76998;BME280;65930;48.874;10.734;2023-11-19T04:47:32;95805.59;;;8.30;100.00
76998;BME280;65930;48.874;10.734;2023-11-19T04:50:01;95808.31;;;8.16;100.00
76998;BME280;65930;48.874;10.734;2023-11-19T04:52:29;95812.66;;;8.20;100.00
76998;BME280;65930;48.874;10.734;2023-11-19T04:54:57;95816.25;;;8.35;100.00
76998;BME280;65930;48.874;10.734;2023-11-19T04:57:26;95813.50;;;8.38;100.00
76998;BME280;65930;48.874;10.734;2023-11-19T04:59:54;95818.97;;;8.28;100.00
76998;BME280;65930;48.874;10.734;2023-11-19T05:02:22;95815.84;;;8.36;100.00
76998;BME280;65930;48.874;10.734;2023-11-19T05:04:50;95818.22;;;8.45;100.00
76998;BME280;65930;48.874;10.734;2023-11-19T05:07:18;95822.97;;;8.34;100.00
76998;BME280;65930;48.874;10.734;2023-11-19T05:09:47;95824.91;;;8.30;100.00
76998;BME280;65930;48.874;10.734;2023-11-19T05:12:15;95831.59;;;8.25;100.00
76998;BME280;65930;48.874;10.734;2023-11-19T05:14:44;95821.00;;;8.38;100.00
76998;BME280;65930;48.874;10.734;2023-11-19T05:17:17;95818.59;;;8.40;100.00
76998;BME280;65930;48.874;10.734;2023-11-19T05:19:45;95817.88;;;8.54;100.00
76998;BME280;65930;48.874;10.734;2023-11-19T05:22:15;95816.69;;;8.58;100.00
76998;BME280;65930;48.874;10.734;2023-11-19T05:24:43;95813.50;;;8.56;100.00
76998;BME280;65930;48.874;10.734;2023-11-19T05:27:11;95811.91;;;8.34;100.00
76998;BME280;65930;48.874;10.734;2023-11-19T05:29:40;95805.22;;;8.60;100.00
76998;BME280;65930;48.874;10.734;2023-11-19T05:32:11;95809.56;;;8.50;100.00
76998;BME280;65930;48.874;10.734;2023-11-19T05:34:39;95810.28;;;8.26;100.00
76998;BME280;65930;48.874;10.734;2023-11-19T05:37:09;95812.72;;;8.38;100.00
76998;BME280;65930;48.874;10.734;2023-11-19T05:39:38;95808.78;;;8.46;100.00
76998;BME280;65930;48.874;10.734;2023-11-19T05:42:05;95800.50;;;8.53;100.00
76998;BME280;65930;48.874;10.734;2023-11-19T05:44:37;95805.22;;;8.56;100.00
76998;BME280;65930;48.874;10.734;2023-11-19T05:47:07;95805.59;;;8.37;100.00
76998;BME280;65930;48.874;10.734;2023-11-19T05:49:37;95808.78;;;8.39;100.00
76998;BME280;65930;48.874;10.734;2023-11-19T05:52:05;95809.94;;;8.34;100.00
76998;BME280;65930;48.874;10.734;2023-11-19T05:54:34;95802.84;;;8.33;100.00
76998;BME280;65930;48.874;10.734;2023-11-19T05:57:04;95802.88;;;8.44;100.00
76998;BME280;65930;48.874;10.734;2023-11-19T05:59:33;95791.81;;;8.33;100.00
76998;BME280;65930;48.874;10.734;2023-11-19T06:02:02;95803.25;;;8.43;100.00
76998;BME280;65930;48.874;10.734;2023-11-19T06:04:30;95804.81;;;8.51;100.00
76998;BME280;65930;48.874;10.734;2023-11-19T06:06:59;95811.16;;;8.58;100.00
76998;BME280;65930;48.874;10.734;2023-11-19T06:09:27;95818.25;;;8.49;100.00
76998;BME280;65930;48.874;10.734;2023-11-19T06:11:55;95810.34;;;8.33;100.00
76998;BME280;65930;48.874;10.734;2023-11-19T06:14:24;95812.72;;;8.34;100.00
76998;BME280;65930;48.874;10.734;2023-11-19T06:16:52;95815.06;;;8.50;100.00
76998;BME280;65930;48.874;10.734;2023-11-19T06:19:20;95825.34;;;8.43;100.00
76998;BME280;65930;48.874;10.734;2023-11-19T06:21:48;95821.78;;;8.63;100.00
76998;BME280;65930;48.874;10.734;2023-11-19T06:24:17;95815.84;;;8.33;100.00
76998;BME280;65930;48.874;10.734;2023-11-19T06:26:45;95817.00;;;8.25;100.00
76998;BME280;65930;48.874;10.734;2023-11-19T06:29:13;95817.00;;;8.25;100.00
76998;BME280;65930;48.874;10.734;2023-11-19T06:31:45;95819.00;;;8.31;100.00
76998;BME280;65930;48.874;10.734;2023-11-19T06:34:15;95822.19;;;8.44;100.00
76998;BME280;65930;48.874;10.734;2023-11-19T06:36:43;95815.84;;;8.40;100.00
76998;BME280;65930;48.874;10.734;2023-11-19T06:39:11;95820.97;;;8.45;100.00
76998;BME280;65930;48.874;10.734;2023-11-19T06:41:44;95815.09;;;8.39;100.00
76998;BME280;65930;48.874;10.734;2023-11-19T06:44:13;95817.06;;;8.53;100.00
76998;BME280;65930;48.874;10.734;2023-11-19T06:46:41;95818.63;;;8.47;100.00
76998;BME280;65930;48.874;10.734;2023-11-19T06:49:09;95816.66;;;8.44;100.00
76998;BME280;65930;48.874;10.734;2023-11-19T06:51:41;95820.56;;;8.36;100.00
76998;BME280;65930;48.874;10.734;2023-11-19T06:54:10;95812.31;;;8.47;100.00
76998;BME280;65930;48.874;10.734;2023-11-19T06:56:38;95822.19;;;8.44;100.00
76998;BME280;65930;48.874;10.734;2023-11-19T06:59:08;95826.16;;;8.57;100.00
76998;BME280;65930;48.874;10.734;2023-11-19T07:01:37;95819.81;;;8.60;100.00
76998;BME280;65930;48.874;10.734;2023-11-19T07:04:06;95825.34;;;8.57;100.00
76998;BME280;65930;48.874;10.734;2023-11-19T07:06:36;95826.13;;;8.61;100.00
76998;BME280;65930;48.874;10.734;2023-11-19T07:09:04;95830.09;;;8.70;100.00
76998;BME280;65930;48.874;10.734;2023-11-19T07:11:38;95831.66;;;8.68;100.00
76998;BME280;65930;48.874;10.734;2023-11-19T07:14:08;95836.03;;;8.72;100.00
76998;BME280;65930;48.874;10.734;2023-11-19T07:16:36;95839.56;;;8.76;100.00
76998;BME280;65930;48.874;10.734;2023-11-19T07:19:06;95821.41;;;8.97;100.00
76998;BME280;65930;48.874;10.734;2023-11-19T07:21:34;95819.03;;;8.99;100.00
76998;BME280;65930;48.874;10.734;2023-11-19T07:24:06;95837.97;;;8.97;100.00
76998;BME280;65930;48.874;10.734;2023-11-19T07:26:35;95826.94;;;9.00;100.00
76998;BME280;65930;48.874;10.734;2023-11-19T07:29:04;95835.63;;;9.09;100.00
76998;BME280;65930;48.874;10.734;2023-11-19T07:31:36;95845.09;;;9.19;100.00
76998;BME280;65930;48.874;10.734;2023-11-19T07:34:04;95845.47;;;9.17;100.00
76998;BME280;65930;48.874;10.734;2023-11-19T07:36:33;95843.88;;;9.27;100.00
76998;BME280;65930;48.874;10.734;2023-11-19T07:39:03;95858.50;;;9.20;100.00
76998;BME280;65930;48.874;10.734;2023-11-19T07:41:31;95849.84;;;9.18;100.00
76998;BME280;65930;48.874;10.734;2023-11-19T07:44:00;95857.69;;;9.20;100.00
76998;BME280;65930;48.874;10.734;2023-11-19T07:46:28;95856.91;;;9.16;100.00
76998;BME280;65930;48.874;10.734;2023-11-19T07:48:58;95864.81;;;9.21;100.00
76998;BME280;65930;48.874;10.734;2023-11-19T07:51:26;95860.88;;;9.22;100.00
76998;BME280;65930;48.874;10.734;2023-11-19T07:53:54;95858.13;;;9.22;100.00
76998;BME280;65930;48.874;10.734;2023-11-19T07:56:22;95865.63;;;9.14;100.00
76998;BME280;65930;48.874;10.734;2023-11-19T07:58:50;95863.22;;;9.20;100.00
76998;BME280;65930;48.874;10.734;2023-11-19T08:01:18;95862.84;;;9.11;100.00
76998;BME280;65930;48.874;10.734;2023-11-19T08:03:46;95862.44;;;9.16;100.00
76998;BME280;65930;48.874;10.734;2023-11-19T08:06:19;95859.69;;;9.16;100.00
76998;BME280;65930;48.874;10.734;2023-11-19T08:08:47;95852.97;;;9.27;100.00
76998;BME280;65930;48.874;10.734;2023-11-19T08:11:15;95853.75;;;9.21;100.00
76998;BME280;65930;48.874;10.734;2023-11-19T08:13:43;95852.97;;;9.42;100.00
76998;BME280;65930;48.874;10.734;2023-11-19T08:16:11;95852.56;;;9.40;100.00
76998;BME280;65930;48.874;10.734;2023-11-19T08:18:41;95871.88;;;9.43;100.00
76998;BME280;65930;48.874;10.734;2023-11-19T08:21:10;95857.25;;;9.53;100.00
76998;BME280;65930;48.874;10.734;2023-11-19T08:23:39;95859.66;;;9.41;100.00
76998;BME280;65930;48.874;10.734;2023-11-19T08:26:07;95870.34;;;9.42;100.00
76998;BME280;65930;48.874;10.734;2023-11-19T08:28:37;95878.22;;;9.54;100.00
76998;BME280;65930;48.874;10.734;2023-11-19T08:31:05;95862.03;;;9.56;100.00
76998;BME280;65930;48.874;10.734;2023-11-19T08:33:33;95878.97;;;9.65;100.00
76998;BME280;65930;48.874;10.734;2023-11-19T08:36:02;95871.47;;;9.69;100.00
76998;BME280;65930;48.874;10.734;2023-11-19T08:38:31;95863.97;;;9.70;100.00
76998;BME280;65930;48.874;10.734;2023-11-19T08:41:00;95846.09;;;9.92;100.00
76998;BME280;65930;48.874;10.734;2023-11-19T08:43:29;95858.41;;;9.73;100.00
76998;BME280;65930;48.874;10.734;2023-11-19T08:45:58;95852.00;;;9.98;100.00
76998;BME280;65930;48.874;10.734;2023-11-19T08:48:26;95848.47;;;9.87;100.00
76998;BME280;65930;48.874;10.734;2023-11-19T08:50:54;95849.63;;;10.00;100.00
76998;BME280;65930;48.874;10.734;2023-11-19T08:53:22;95837.38;;;9.97;100.00
76998;BME280;65930;48.874;10.734;2023-11-19T08:55:50;95840.84;;;10.19;100.00
76998;BME280;65930;48.874;10.734;2023-11-19T08:58:20;95845.59;;;10.15;100.00
76998;BME280;65930;48.874;10.734;2023-11-19T09:00:48;95856.25;;;10.27;100.00
76998;BME280;65930;48.874;10.734;2023-11-19T09:03:16;95855.00;;;10.39;100.00
76998;BME280;65930;48.874;10.734;2023-11-19T09:05:45;95855.03;;;10.32;100.00
76998;BME280;65930;48.874;10.734;2023-11-19T09:08:13;95838.41;;;10.32;100.00
76998;BME280;65930;48.874;10.734;2023-11-19T09:10:41;95840.03;;;10.29;100.00
76998;BME280;65930;48.874;10.734;2023-11-19T09:13:09;95847.19;;;10.12;100.00
76998;BME280;65930;48.874;10.734;2023-11-19T09:15:39;95854.69;;;10.26;100.00
76998;BME280;65930;48.874;10.734;2023-11-19T09:18:09;95844.94;;;9.86;100.00
76998;BME280;65930;48.874;10.734;2023-11-19T09:20:37;95859.09;;;10.06;100.00
76998;BME280;65930;48.874;10.734;2023-11-19T09:23:06;95859.09;;;10.02;100.00
76998;BME280;65930;48.874;10.734;2023-11-19T09:25:36;95864.63;;;10.06;100.00
76998;BME280;65930;48.874;10.734;2023-11-19T09:28:07;95866.97;;;10.18;100.00
76998;BME280;65930;48.874;10.734;2023-11-19T09:30:35;95871.75;;;10.07;100.00
76998;BME280;65930;48.874;10.734;2023-11-19T09:33:05;95863.69;;;10.37;100.00
76998;BME280;65930;48.874;10.734;2023-11-19T09:35:33;95875.53;;;10.41;100.00
76998;BME280;65930;48.874;10.734;2023-11-19T09:38:01;95870.81;;;10.38;100.00
76998;BME280;65930;48.874;10.734;2023-11-19T09:40:31;95876.28;;;10.52;100.00
76998;BME280;65930;48.874;10.734;2023-11-19T09:43:01;95881.09;;;10.41;100.00
76998;BME280;65930;48.874;10.734;2023-11-19T09:45:32;95873.88;;;10.54;100.00
76998;BME280;65930;48.874;10.734;2023-11-19T09:48:07;95860.31;;;10.74;100.00
76998;BME280;65930;48.874;10.734;2023-11-19T09:50:35;95858.03;;;10.62;100.00
76998;BME280;65930;48.874;10.734;2023-11-19T09:53:03;95866.28;;;10.69;100.00
76998;BME280;65930;48.874;10.734;2023-11-19T09:55:32;95865.22;;;10.52;100.00
76998;BME280;65930;48.874;10.734;2023-11-19T09:58:01;95868.31;;;10.62;100.00
76998;BME280;65930;48.874;10.734;2023-11-19T10:00:30;95867.94;;;10.63;100.00
76998;BME280;65930;48.874;10.734;2023-11-19T10:02:59;95871.56;;;10.49;100.00
76998;BME280;65930;48.874;10.734;2023-11-19T10:05:29;95859.28;;;10.50;100.00
76998;BME280;65930;48.874;10.734;2023-11-19T10:07:57;95869.13;;;10.58;100.00
76998;BME280;65930;48.874;10.734;2023-11-19T10:10:25;95867.59;;;10.54;100.00
76998;BME280;65930;48.874;10.734;2023-11-19T10:12:54;95875.53;;;10.45;100.00
76998;BME280;65930;48.874;10.734;2023-11-19T10:15:25;95865.50;;;10.72;100.00
76998;BME280;65930;48.874;10.734;2023-11-19T10:17:56;95860.66;;;10.83;100.00
76998;BME280;65930;48.874;10.734;2023-11-19T10:20:25;95869.34;;;10.85;100.00
76998;BME280;65930;48.874;10.734;2023-11-19T10:22:55;95869.72;;;10.91;100.00
76998;BME280;65930;48.874;10.734;2023-11-19T10:25:24;95866.94;;;10.91;100.00
76998;BME280;65930;48.874;10.734;2023-11-19T10:27:54;95872.84;;;10.93;100.00
76998;BME280;65930;48.874;10.734;2023-11-19T10:30:24;95865.31;;;10.93;100.00
76998;BME280;65930;48.874;10.734;2023-11-19T10:33:03;95865.94;;;11.19;100.00
76998;BME280;65930;48.874;10.734;2023-11-19T10:35:33;95856.13;;;11.07;100.00
76998;BME280;65930;48.874;10.734;2023-11-19T10:38:13;95852.66;;;10.96;100.00
76998;BME280;65930;48.874;10.734;2023-11-19T10:40:43;95856.00;;;11.21;100.00
76998;BME280;65930;48.874;10.734;2023-11-19T10:43:12;95841.38;;;11.17;100.00
76998;BME280;65930;48.874;10.734;2023-11-19T10:45:41;95852.47;;;11.17;100.00
76998;BME280;65930;48.874;10.734;2023-11-19T10:48:09;95844.56;;;11.16;100.00
76998;BME280;65930;48.874;10.734;2023-11-19T10:50:40;95843.31;;;11.24;100.00
76998;BME280;65930;48.874;10.734;2023-11-19T10:53:12;95852.91;;;11.12;100.00
76998;BME280;65930;48.874;10.734;2023-11-19T10:55:47;95843.19;;;11.34;100.00
76998;BME280;65930;48.874;10.734;2023-11-19T10:58:16;95838.41;;;11.38;100.00
76998;BME280;65930;48.874;10.734;2023-11-19T11:00:47;95831.91;;;11.56;100.00
76998;BME280;65930;48.874;10.734;2023-11-19T11:03:18;95840.72;;;11.43;100.00
76998;BME280;65930;48.874;10.734;2023-11-19T11:05:47;95829.63;;;11.47;100.00
76998;BME280;65930;48.874;10.734;2023-11-19T11:08:20;95832.84;;;11.42;100.00
76998;BME280;65930;48.874;10.734;2023-11-19T11:10:53;95844.78;;;11.35;100.00
76998;BME280;65930;48.874;10.734;2023-11-19T11:13:24;95838.59;;;11.62;100.00
76998;BME280;65930;48.874;10.734;2023-11-19T11:15:55;95844.50;;;11.64;100.00
76998;BME280;65930;48.874;10.734;2023-11-19T11:18:25;95843.03;;;11.93;100.00
76998;BME280;65930;48.874;10.734;2023-11-19T11:21:00;95843.03;;;12.23;100.00
76998;BME280;65930;48.874;10.734;2023-11-19T11:30:22;95810.53;;;12.51;100.00
76998;BME280;65930;48.874;10.734;2023-11-19T11:33:10;95823.13;;;12.59;100.00
76998;BME280;65930;48.874;10.734;2023-11-19T11:35:50;95817.50;;;12.62;100.00
76998;BME280;65930;48.874;10.734;2023-11-19T11:38:22;95822.13;;;12.72;100.00
76998;BME280;65930;48.874;10.734;2023-11-19T11:41:18;95818.75;;;12.85;100.00
76998;BME280;65930;48.874;10.734;2023-11-19T11:43:55;95829.75;;;12.68;99.42
76998;BME280;65930;48.874;10.734;2023-11-19T11:46:54;95817.72;;;12.75;98.63
76998;BME280;65930;48.874;10.734;2023-11-19T11:49:27;95813.09;;;12.92;99.54
76998;BME280;65930;48.874;10.734;2023-11-19T11:52:00;95804.09;;;13.11;98.96
76998;BME280;65930;48.874;10.734;2023-11-19T11:54:29;95811.56;;;13.14;99.05
76998;BME280;65930;48.874;10.734;2023-11-19T11:57:10;95797.97;;;13.19;97.94
76998;BME280;65930;48.874;10.734;2023-11-19T11:59:46;95797.72;;;13.34;97.54
76998;BME280;65930;48.874;10.734;2023-11-19T12:02:15;95806.06;;;13.34;97.58
76998;BME280;65930;48.874;10.734;2023-11-19T12:04:47;95807.63;;;13.35;98.00
76998;BME280;65930;48.874;10.734;2023-11-19T12:07:18;95810.16;;;13.26;95.98
76998;BME280;65930;48.874;10.734;2023-11-19T12:09:48;95803.22;;;13.37;94.40
76998;BME280;65930;48.874;10.734;2023-11-19T12:12:27;95800.59;;;13.50;93.83
76998;BME280;65930;48.874;10.734;2023-11-19T12:15:07;95808.38;;;13.39;91.34
76998;BME280;65930;48.874;10.734;2023-11-19T12:17:46;95795.75;;;13.54;91.12
76998;BME280;65930;48.874;10.734;2023-11-19T12:20:19;95796.69;;;13.67;89.17
76998;BME280;65930;48.874;10.734;2023-11-19T12:22:51;95788.84;;;13.62;89.59
76998;BME280;65930;48.874;10.734;2023-11-19T12:25:20;95790.78;;;13.65;86.21
76998;BME280;65930;48.874;10.734;2023-11-19T12:27:51;95781.00;;;13.57;87.16
76998;BME280;65930;48.874;10.734;2023-11-19T12:30:22;95772.19;;;13.58;85.65
76998;BME280;65930;48.874;10.734;2023-11-19T12:32:53;95778.78;;;13.68;87.29
76998;BME280;65930;48.874;10.734;2023-11-19T12:35:22;95771.19;;;13.49;84.85
76998;BME280;65930;48.874;10.734;2023-11-19T12:37:51;95776.50;;;13.63;85.96
76998;BME280;65930;48.874;10.734;2023-11-19T12:40:21;95774.06;;;13.65;86.00
76998;BME280;65930;48.874;10.734;2023-11-19T12:42:53;95763.34;;;13.44;84.91
76998;BME280;65930;48.874;10.734;2023-11-19T12:45:22;95757.09;;;13.59;84.25
76998;BME280;65930;48.874;10.734;2023-11-19T12:48:04;95768.34;;;13.72;85.32
76998;BME280;65930;48.874;10.734;2023-11-19T12:50:50;95764.56;;;13.62;84.10
76998;BME280;65930;48.874;10.734;2023-11-19T12:53:18;95773.63;;;13.47;82.01
76998;BME280;65930;48.874;10.734;2023-11-19T12:55:46;95757.19;;;13.33;82.31
76998;BME280;65930;48.874;10.734;2023-11-19T12:58:32;95754.00;;;13.34;83.76
76998;BME280;65930;48.874;10.734;2023-11-19T13:01:01;95755.84;;;13.41;83.95
76998;BME280;65930;48.874;10.734;2023-11-19T13:03:31;95750.91;;;13.29;84.29
76998;BME280;65930;48.874;10.734;2023-11-19T13:06:04;95746.56;;;13.28;82.93
76998;BME280;65930;48.874;10.734;2023-11-19T13:08:39;95746.06;;;13.33;83.16